Terminal Aerodrome Forecast
Issued by NWS

Home | Current Version | Previous Version | Text Only | Print | Product List | Glossary On
Versions: 1 2 3 4 5 6 7 8 9 10 11 12
078
FTUS46 KHNX 292320
TAFVIS
TAF
KVIS 292320Z 3000/3024 30007KT P6SM SKC
     FM300600 VRB03KT P6SM SKC
     FM302200 30007KT P6SM SKC=

USA.gov is the U.S. government's official web portal to all federal, state and local government web resources and services.